createdAt,value
2019-05-07T00:01:55.255Z,4.37
2019-05-07T00:04:23.656Z,4.43
2019-05-07T00:06:52.750Z,4.57
2019-05-07T00:09:23.286Z,4.40
2019-05-07T00:11:53.191Z,4.77
2019-05-07T00:14:23.101Z,4.40
2019-05-07T00:16:53.328Z,3.80
2019-05-07T00:19:22.946Z,4.43
2019-05-07T00:21:52.777Z,4.27
2019-05-07T00:24:22.332Z,3.87
2019-05-07T00:26:53.034Z,4.30
2019-05-07T00:29:22.713Z,4.40
2019-05-07T00:31:52.049Z,4.30
2019-05-07T00:39:24.888Z,5.70
2019-05-07T00:42:12.684Z,6.20
2019-05-07T00:44:56.963Z,6.50
2019-05-07T00:47:26.723Z,5.50
2019-05-07T00:49:56.539Z,6.10
2019-05-07T00:52:24.726Z,6.90
2019-05-07T00:54:54.280Z,6.07
2019-05-07T00:57:22.964Z,6.65
2019-05-07T00:59:52.494Z,6.15
2019-05-07T01:02:22.598Z,5.53
2019-05-07T01:04:53.176Z,6.70
2019-05-07T01:07:22.876Z,6.45
2019-05-07T01:09:52.372Z,6.85
2019-05-07T01:12:22.256Z,6.50
2019-05-07T01:14:52.919Z,7.00
2019-05-07T01:17:22.730Z,7.30
2019-05-07T01:19:53.039Z,8.83
2019-05-07T01:22:22.242Z,7.80
2019-05-07T01:24:52.419Z,8.53
2019-05-07T01:27:22.608Z,7.87
2019-05-07T01:29:52.867Z,6.87
2019-05-07T01:32:24.165Z,8.30
2019-05-07T01:34:54.958Z,8.00
2019-05-07T01:37:23.266Z,7.80
2019-05-07T01:39:52.956Z,8.63
2019-05-07T01:42:22.314Z,8.30
2019-05-07T01:44:52.676Z,8.80
2019-05-07T01:47:23.516Z,8.90
2019-05-07T01:49:52.381Z,8.17
2019-05-07T01:52:22.682Z,8.30
2019-05-07T01:54:52.286Z,7.70
2019-05-07T01:57:23.126Z,7.13
2019-05-07T01:59:52.834Z,8.13
2019-05-07T02:02:23.044Z,7.93
2019-05-07T02:05:03.179Z,7.90
2019-05-07T02:07:33.582Z,7.83
2019-05-07T02:17:32.249Z,8.70
2019-05-07T02:22:31.984Z,7.90
2019-05-07T02:25:00.472Z,7.40
2019-05-07T02:27:28.727Z,7.40
2019-05-07T02:29:56.937Z,7.90
2019-05-07T02:32:25.145Z,7.73
2019-05-07T02:34:54.441Z,7.57
2019-05-07T02:37:27.386Z,7.23
2019-05-07T02:40:04.445Z,8.03
2019-05-07T02:42:33.547Z,7.60
2019-05-07T02:45:23.814Z,7.33
2019-05-07T02:47:52.531Z,7.70
2019-05-07T02:50:22.837Z,7.97
2019-05-07T02:53:04.258Z,7.97
2019-05-07T02:55:43.468Z,7.77
2019-05-07T02:58:13.709Z,7.20
2019-05-07T03:00:43.424Z,8.77
2019-05-07T03:03:13.798Z,7.63
2019-05-07T03:08:13.581Z,7.73
2019-05-07T03:10:43.596Z,8.50
2019-05-07T03:13:13.713Z,7.70
2019-05-07T03:15:44.019Z,8.20
2019-05-07T03:18:13.851Z,6.97
2019-05-07T03:20:49.569Z,7.97
2019-05-07T03:23:22.906Z,7.33
2019-05-07T03:25:55.844Z,7.40
2019-05-07T03:28:25.724Z,8.20
2019-05-07T03:31:07.429Z,8.40
2019-05-07T03:33:56.015Z,8.97
2019-05-07T03:36:26.134Z,8.90
2019-05-07T03:38:53.901Z,8.70
2019-05-07T03:43:52.686Z,8.50
2019-05-07T03:46:23.541Z,9.23
2019-05-07T03:48:53.103Z,9.23
2019-05-07T03:51:23.743Z,8.87
2019-05-07T03:53:53.706Z,9.40
2019-05-07T03:56:23.609Z,9.90
2019-05-07T03:58:52.916Z,9.07
2019-05-07T04:01:24.015Z,11.23
2019-05-07T04:03:53.292Z,10.10
2019-05-07T04:06:23.362Z,10.07
2019-05-07T04:08:53.183Z,10.07
2019-05-07T04:11:22.970Z,11.30
2019-05-07T04:13:53.592Z,10.10
2019-05-07T04:16:23.950Z,10.10
2019-05-07T04:18:53.370Z,10.13
2019-05-07T04:21:23.245Z,10.00
2019-05-07T04:23:55.222Z,10.20
2019-05-07T04:26:28.703Z,10.57
2019-05-07T04:29:04.838Z,11.37
2019-05-07T04:31:34.297Z,10.40
2019-05-07T04:34:04.092Z,10.07
2019-05-07T04:36:34.244Z,10.27
2019-05-07T04:39:03.332Z,10.90
2019-05-07T04:41:33.034Z,10.30
2019-05-07T04:44:03.633Z,11.70
2019-05-07T04:46:33.323Z,10.60
2019-05-07T04:49:03.695Z,10.00
2019-05-07T04:51:35.365Z,10.93
2019-05-07T04:54:03.945Z,10.37
2019-05-07T04:56:33.702Z,9.73
2019-05-07T04:59:04.002Z,11.00
2019-05-07T05:01:33.828Z,10.43
2019-05-07T05:04:21.098Z,11.60
2019-05-07T05:06:33.908Z,11.17
2019-05-07T05:09:03.054Z,10.60
2019-05-07T05:11:33.520Z,11.10
2019-05-07T05:14:02.817Z,11.60
2019-05-07T05:16:32.740Z,11.23
2019-05-07T05:19:02.489Z,10.90
2019-05-07T05:21:42.097Z,11.37
2019-05-07T05:24:12.620Z,11.00
2019-05-07T05:26:41.936Z,10.93
2019-05-07T05:29:12.120Z,10.87
2019-05-07T05:31:42.177Z,11.27
2019-05-07T05:34:12.855Z,10.30
2019-05-07T05:36:42.387Z,10.03
2019-05-07T05:39:10.320Z,11.50
2019-05-07T05:41:42.108Z,10.37
2019-05-07T05:44:11.955Z,10.27
2019-05-07T05:46:42.862Z,9.73
2019-05-07T05:49:11.872Z,10.50
2019-05-07T05:51:44.676Z,10.80
2019-05-07T05:54:23.682Z,8.97
2019-05-07T05:56:53.503Z,10.87
2019-05-07T05:59:45.017Z,9.20
2019-05-07T06:02:03.406Z,8.80
2019-05-07T06:04:42.121Z,6.90
2019-05-07T06:07:28.521Z,6.90
2019-05-07T06:10:15.113Z,6.90
2019-05-07T06:12:45.038Z,6.30
2019-05-07T06:15:16.407Z,6.63
2019-05-07T06:17:55.199Z,6.80
2019-05-07T06:20:25.137Z,6.10
2019-05-07T06:23:13.053Z,5.87
2019-05-07T06:25:43.013Z,6.45
2019-05-07T06:28:12.655Z,5.33
2019-05-07T06:30:41.848Z,5.00
2019-05-07T06:33:12.437Z,6.00
2019-05-07T06:35:42.753Z,5.13
2019-05-07T06:38:12.532Z,5.70
2019-05-07T06:40:57.322Z,5.53
2019-05-07T06:43:27.157Z,4.33
2019-05-07T06:45:57.009Z,4.10
2019-05-07T06:48:37.745Z,3.30
2019-05-07T06:50:58.923Z,3.70
2019-05-07T06:53:27.651Z,3.80
2019-05-07T06:55:56.412Z,4.13
2019-05-07T06:58:26.253Z,4.40
2019-05-07T07:01:02.372Z,4.90
2019-05-07T07:03:38.007Z,5.47
2019-05-07T07:06:08.724Z,5.87
2019-05-07T07:08:42.007Z,6.03
2019-05-07T07:11:12.891Z,5.60
2019-05-07T07:13:42.658Z,5.17
2019-05-07T07:16:12.688Z,4.73
2019-05-07T07:18:51.338Z,4.63
2019-05-07T07:21:12.372Z,4.33
2019-05-07T07:23:42.781Z,4.40
2019-05-07T07:26:12.640Z,4.47
2019-05-07T07:28:42.773Z,5.00
2019-05-07T07:31:28.642Z,4.60
2019-05-07T07:33:58.630Z,3.97
2019-05-07T07:36:28.446Z,3.23
2019-05-07T07:38:56.640Z,4.20
2019-05-07T07:41:42.126Z,3.10
2019-05-07T07:44:12.725Z,3.60
2019-05-07T07:46:42.448Z,3.23
2019-05-07T07:49:14.519Z,3.73
2019-05-07T07:51:44.410Z,3.80
2019-05-07T07:54:13.140Z,2.90
2019-05-07T07:56:53.205Z,3.17
2019-05-07T07:59:35.776Z,2.80
2019-05-07T08:02:22.955Z,2.90
2019-05-07T08:04:52.782Z,2.80
2019-05-07T08:07:22.829Z,2.60
2019-05-07T08:09:52.024Z,2.40
2019-05-07T08:12:22.098Z,2.60
2019-05-07T08:14:51.966Z,2.40
2019-05-07T08:17:22.423Z,2.20
2019-05-07T08:19:51.969Z,2.60
2019-05-07T08:22:22.381Z,2.80
2019-05-07T08:24:51.954Z,2.10
2019-05-07T08:27:22.191Z,2.20
2019-05-07T08:29:52.299Z,2.23
2019-05-07T08:32:32.646Z,2.17
2019-05-07T08:35:02.601Z,2.33
2019-05-07T08:37:32.088Z,2.30
2019-05-07T08:40:02.918Z,2.77
2019-05-07T08:42:32.043Z,2.30
2019-05-07T08:45:05.026Z,1.90
2019-05-07T08:47:35.861Z,2.50
2019-05-07T08:50:05.581Z,2.30
2019-05-07T08:52:33.751Z,1.87
2019-05-07T08:55:02.254Z,2.00
2019-05-07T08:57:31.867Z,2.07
2019-05-07T09:00:01.667Z,2.07
2019-05-07T09:02:32.426Z,2.00
2019-05-07T09:05:00.024Z,1.60
2019-05-07T09:07:28.296Z,1.43
2019-05-07T09:09:56.643Z,1.80
2019-05-07T09:12:24.877Z,1.90
2019-05-07T09:14:53.156Z,2.10
2019-05-07T09:17:22.959Z,2.00
2019-05-07T09:19:54.497Z,1.87
2019-05-07T09:22:23.019Z,1.83
2019-05-07T09:24:52.638Z,1.90
2019-05-07T09:27:22.907Z,1.87
2019-05-07T09:29:52.761Z,1.70
2019-05-07T09:32:22.839Z,1.80
2019-05-07T09:34:52.628Z,2.00
2019-05-07T09:37:32.621Z,2.30
2019-05-07T09:40:02.783Z,2.30
2019-05-07T09:42:33.212Z,1.90
2019-05-07T09:45:01.897Z,1.47
2019-05-07T09:47:32.303Z,1.60
2019-05-07T09:50:04.669Z,2.00
2019-05-07T09:52:32.109Z,1.60
2019-05-07T09:55:02.614Z,1.70
2019-05-07T09:57:31.603Z,1.70
2019-05-07T10:00:02.048Z,1.70
2019-05-07T10:02:31.832Z,2.20
2019-05-07T10:05:02.040Z,1.63
2019-05-07T10:07:32.207Z,2.00
2019-05-07T10:09:59.555Z,1.97
2019-05-07T10:12:35.187Z,1.70
2019-05-07T10:15:03.946Z,1.73
2019-05-07T10:17:39.656Z,1.70
2019-05-07T10:20:19.194Z,2.10
2019-05-07T10:22:38.391Z,1.97
2019-05-07T10:25:06.608Z,1.97
2019-05-07T10:27:35.060Z,1.60
2019-05-07T10:30:03.328Z,1.57
2019-05-07T10:32:32.178Z,1.63
2019-05-07T10:35:02.192Z,1.30
2019-05-07T10:37:31.907Z,1.30
2019-05-07T10:40:02.845Z,1.77
2019-05-07T10:42:32.332Z,1.80
2019-05-07T10:45:03.077Z,1.70
2019-05-07T10:47:33.049Z,1.40
2019-05-07T10:50:33.116Z,1.57
2019-05-07T10:52:49.441Z,1.70
2019-05-07T10:55:17.918Z,1.30
2019-05-07T10:57:46.119Z,1.53
2019-05-07T11:00:16.496Z,1.50
2019-05-07T11:02:44.709Z,1.87
2019-05-07T11:05:13.755Z,1.60
2019-05-07T11:07:42.317Z,1.60
2019-05-07T11:10:12.342Z,1.30
2019-05-07T11:12:42.468Z,1.67
2019-05-07T11:15:12.671Z,1.60
2019-05-07T11:17:57.894Z,1.90
2019-05-07T11:20:26.100Z,1.40
2019-05-07T11:22:54.299Z,1.43
2019-05-07T11:25:22.636Z,1.87
2019-05-07T11:27:52.399Z,1.80
2019-05-07T11:30:22.833Z,2.00
2019-05-07T11:32:52.223Z,1.60
2019-05-07T11:35:23.014Z,1.80
2019-05-07T11:37:52.081Z,1.60
2019-05-07T11:40:22.892Z,1.83
2019-05-07T11:43:04.957Z,1.87
2019-05-07T11:45:37.743Z,1.60
2019-05-07T11:48:05.957Z,2.30
2019-05-07T11:50:35.849Z,1.60
2019-05-07T11:53:18.591Z,1.70
2019-05-07T11:55:46.797Z,1.57
2019-05-07T11:58:15.013Z,1.50
2019-05-07T12:00:47.708Z,1.53
2019-05-07T12:03:15.904Z,1.70
2019-05-07T12:05:44.138Z,2.00
2019-05-07T12:08:13.214Z,1.40
2019-05-07T12:10:41.602Z,1.83
2019-05-07T12:13:09.796Z,2.10
2019-05-07T12:15:38.002Z,1.80
2019-05-07T12:18:06.201Z,1.57
2019-05-07T12:20:34.380Z,1.53
2019-05-07T12:23:02.979Z,1.60
2019-05-07T12:25:32.038Z,1.60
2019-05-07T12:28:02.500Z,1.90
2019-05-07T12:30:51.701Z,1.60
2019-05-07T12:33:27.153Z,1.40
2019-05-07T12:35:55.361Z,1.33
2019-05-07T12:38:23.524Z,1.50
2019-05-07T12:40:52.434Z,1.20
2019-05-07T12:43:20.785Z,1.40
2019-05-07T12:45:48.968Z,1.40
2019-05-07T12:48:17.167Z,1.50
2019-05-07T12:50:45.382Z,1.50
2019-05-07T12:53:22.450Z,1.67
2019-05-07T12:55:52.396Z,1.40
2019-05-07T12:58:21.824Z,1.77
2019-05-07T13:00:52.086Z,2.00
2019-05-07T13:03:25.052Z,1.67
2019-05-07T13:05:53.259Z,1.70
2019-05-07T13:08:23.002Z,1.50
2019-05-07T13:10:51.955Z,1.40
2019-05-07T13:13:20.197Z,1.70
2019-05-07T13:15:48.406Z,1.50
2019-05-07T13:18:16.588Z,1.60
2019-05-07T13:20:44.755Z,1.63
2019-05-07T13:23:12.940Z,1.50
2019-05-07T13:25:42.933Z,1.40
2019-05-07T13:28:11.843Z,1.30
2019-05-07T13:30:43.624Z,1.40
2019-05-07T13:33:12.174Z,1.47
2019-05-07T13:35:41.963Z,1.60
2019-05-07T13:38:14.670Z,1.60
2019-05-07T13:40:43.785Z,1.53
2019-05-07T13:43:26.048Z,1.60
2019-05-07T13:45:59.064Z,1.80
2019-05-07T13:48:27.469Z,1.60
2019-05-07T13:50:55.765Z,1.73
2019-05-07T13:53:24.328Z,1.90
2019-05-07T13:55:52.498Z,1.80
2019-05-07T13:58:22.851Z,1.80
2019-05-07T14:01:11.952Z,1.80
2019-05-07T14:03:39.304Z,2.00
2019-05-07T14:06:07.522Z,1.90
2019-05-07T14:08:37.433Z,1.80
2019-05-07T14:11:05.611Z,1.70
2019-05-07T14:13:33.964Z,1.63
2019-05-07T14:16:06.883Z,1.77
2019-05-07T14:18:36.627Z,1.60
2019-05-07T14:21:05.097Z,1.90
2019-05-07T14:23:33.299Z,1.30
2019-05-07T14:26:01.949Z,1.70
2019-05-07T14:28:32.502Z,1.87
2019-05-07T14:31:01.843Z,1.80
2019-05-07T14:33:37.684Z,1.73
2019-05-07T14:36:19.484Z,1.60
2019-05-07T14:38:52.121Z,1.87
2019-05-07T14:41:25.282Z,1.80
2019-05-07T14:43:57.833Z,1.77
2019-05-07T14:46:26.101Z,1.83
2019-05-07T14:48:54.285Z,1.70
2019-05-07T14:56:18.246Z,1.67
2019-05-07T14:58:46.465Z,1.50
2019-05-07T15:01:14.648Z,1.67
2019-05-07T15:03:42.842Z,1.97
2019-05-07T15:06:12.615Z,1.80
2019-05-07T15:08:42.737Z,1.50
2019-05-07T15:11:10.732Z,1.90
2019-05-07T15:13:38.962Z,1.93
2019-05-07T15:16:07.131Z,1.70
2019-05-07T15:18:43.189Z,2.00
2019-05-07T15:21:12.316Z,1.77
2019-05-07T15:23:42.424Z,1.90
2019-05-07T15:26:12.664Z,1.80
2019-05-07T15:28:42.477Z,2.07
2019-05-07T15:31:12.341Z,2.00
2019-05-07T15:33:41.806Z,1.60
2019-05-07T15:36:11.834Z,1.70
2019-05-07T15:38:40.047Z,1.70
2019-05-07T15:41:08.252Z,1.97
2019-05-07T15:43:36.428Z,2.00
2019-05-07T15:46:04.610Z,1.80
2019-05-07T15:48:33.552Z,2.00
2019-05-07T15:51:01.753Z,1.83
2019-05-07T15:53:32.351Z,2.20
2019-05-07T15:58:30.912Z,2.10
2019-05-07T16:00:59.113Z,2.00
2019-05-07T16:03:32.100Z,2.03
2019-05-07T16:06:03.599Z,2.20
2019-05-07T16:08:32.093Z,1.80
2019-05-07T16:11:01.577Z,1.93
2019-05-07T16:13:47.201Z,1.73
2019-05-07T16:16:15.364Z,2.30
2019-05-07T16:19:03.465Z,1.80
2019-05-07T16:21:32.503Z,2.03
2019-05-07T16:24:00.992Z,2.07
2019-05-07T16:26:29.164Z,2.07
2019-05-07T16:28:57.393Z,2.10
2019-05-07T16:31:25.563Z,2.13
2019-05-07T16:33:53.734Z,2.10
2019-05-07T16:36:22.105Z,2.30
2019-05-07T16:38:52.521Z,2.00
2019-05-07T16:41:22.383Z,2.30
2019-05-07T16:43:52.279Z,1.97
2019-05-07T16:46:22.415Z,1.90
2019-05-07T16:48:50.789Z,2.37
2019-05-07T16:51:18.993Z,2.40
2019-05-07T16:53:47.203Z,2.10
2019-05-07T16:56:15.391Z,2.13
2019-05-07T16:59:01.795Z,2.03
2019-05-07T17:01:32.447Z,2.10
2019-05-07T17:04:02.593Z,1.90
2019-05-07T17:06:32.081Z,2.40
2019-05-07T17:09:08.067Z,2.20
2019-05-07T17:11:37.141Z,1.90
2019-05-07T17:14:05.445Z,2.03
2019-05-07T17:16:33.616Z,2.27
2019-05-07T17:19:02.549Z,2.17
2019-05-07T17:21:32.402Z,2.00
2019-05-07T17:24:02.612Z,2.10
2019-05-07T17:26:30.724Z,2.13
2019-05-07T17:28:58.896Z,2.13
2019-05-07T17:31:27.075Z,2.47
2019-05-07T17:33:55.254Z,1.93
2019-05-07T17:36:23.457Z,2.00
2019-05-07T17:38:52.036Z,2.10
2019-05-07T17:41:24.796Z,1.97
2019-05-07T17:43:52.130Z,1.87
2019-05-07T17:46:21.691Z,1.90
2019-05-07T17:48:52.470Z,2.30
2019-05-07T17:51:39.032Z,2.33
2019-05-07T17:54:07.263Z,2.10
2019-05-07T17:56:35.515Z,2.17
2019-05-07T17:59:03.732Z,2.30
2019-05-07T18:01:33.544Z,2.37
2019-05-07T18:04:02.919Z,2.43
2019-05-07T18:06:32.112Z,2.30
2019-05-07T18:09:02.759Z,2.10
2019-05-07T18:11:32.330Z,1.90
2019-05-07T18:14:02.581Z,2.20
2019-05-07T18:16:35.500Z,2.37
2019-05-07T18:19:03.765Z,2.77
2019-05-07T18:21:32.573Z,1.90
2019-05-07T18:24:13.405Z,2.23
2019-05-07T18:26:33.754Z,1.90
2019-05-07T18:29:02.431Z,2.20
2019-05-07T18:31:44.319Z,2.13
2019-05-07T18:34:12.861Z,3.00
2019-05-07T18:36:42.238Z,2.70
2019-05-07T18:39:10.656Z,2.27
2019-05-07T18:41:38.864Z,2.67
2019-05-07T18:44:12.402Z,2.40
2019-05-07T18:46:36.940Z,2.37
2019-05-07T18:49:05.112Z,2.40
2019-05-07T18:51:33.292Z,3.10
2019-05-07T18:54:02.421Z,3.90
2019-05-07T18:56:30.829Z,3.60
2019-05-07T18:58:59.593Z,2.77
2019-05-07T19:01:30.093Z,2.43
2019-05-07T19:03:58.297Z,2.87
2019-05-07T19:06:26.570Z,3.63
2019-05-07T19:08:54.755Z,4.60
2019-05-07T19:11:23.040Z,3.40
2019-05-07T19:13:52.498Z,3.07
2019-05-07T19:16:23.048Z,3.77
2019-05-07T19:18:51.053Z,3.90
2019-05-07T19:21:19.227Z,3.23
2019-05-07T19:23:47.407Z,3.60
2019-05-07T19:26:15.619Z,3.43
2019-05-07T19:28:43.905Z,3.93
2019-05-07T19:31:12.592Z,4.80
2019-05-07T19:33:41.950Z,4.37
2019-05-07T19:36:10.439Z,4.07
2019-05-07T19:38:38.666Z,3.97
2019-05-07T19:41:06.860Z,3.63
2019-05-07T19:43:36.357Z,4.20
2019-05-07T19:46:04.729Z,4.00
2019-05-07T19:48:32.930Z,4.30
2019-05-07T19:51:02.874Z,4.47
2019-05-07T19:53:32.690Z,4.40
2019-05-07T19:56:14.789Z,4.50
2019-05-07T19:58:42.969Z,4.57
2019-05-07T20:01:12.224Z,4.93
2019-05-07T20:03:40.492Z,5.40
2019-05-07T20:06:09.616Z,4.87
2019-05-07T20:08:37.833Z,5.30
2019-05-07T20:11:25.727Z,4.47
2019-05-07T20:13:53.909Z,4.47
2019-05-07T20:16:23.140Z,7.30
2019-05-07T20:18:52.636Z,5.40
2019-05-07T20:21:22.732Z,7.07
2019-05-07T20:23:52.717Z,6.60
2019-05-07T20:26:22.893Z,7.07
2019-05-07T20:28:52.481Z,8.00
2019-05-07T20:31:22.710Z,8.10
2019-05-07T20:33:53.041Z,7.50
2019-05-07T20:36:21.069Z,6.37
2019-05-07T20:38:49.254Z,6.20
2019-05-07T20:41:17.461Z,7.23
2019-05-07T20:43:45.663Z,6.23
2019-05-07T20:46:14.793Z,7.27
2019-05-07T20:48:42.976Z,6.33
2019-05-07T20:51:12.557Z,6.93
2019-05-07T20:53:59.176Z,6.13
2019-05-07T20:56:34.994Z,5.53
2019-05-07T20:59:03.245Z,4.77
2019-05-07T21:01:33.080Z,4.87
2019-05-07T21:04:02.106Z,4.80
2019-05-07T21:06:32.327Z,4.60
2019-05-07T21:09:01.313Z,4.33
2019-05-07T21:11:29.535Z,5.13
2019-05-07T21:13:57.724Z,5.63
2019-05-07T21:16:25.949Z,4.90
2019-05-07T21:18:54.149Z,4.90
2019-05-07T21:21:22.329Z,3.97
2019-05-07T21:23:52.535Z,4.50
2019-05-07T21:26:22.387Z,4.70
2019-05-07T21:28:52.611Z,5.70
2019-05-07T21:31:22.550Z,5.10
2019-05-07T21:33:52.204Z,5.93
2019-05-07T21:36:20.093Z,5.43
2019-05-07T21:38:48.289Z,5.10
2019-05-07T21:41:16.470Z,4.60
2019-05-07T21:43:46.156Z,4.50
2019-05-07T21:46:15.509Z,4.50
2019-05-07T21:48:43.752Z,5.20
2019-05-07T21:51:12.360Z,4.30
2019-05-07T21:53:44.993Z,4.33
2019-05-07T21:56:22.820Z,4.50
2019-05-07T21:59:03.004Z,4.60
2019-05-07T22:01:35.125Z,4.60
2019-05-07T22:04:03.537Z,4.87
2019-05-07T22:06:31.757Z,5.33
2019-05-07T22:09:01.558Z,5.53
2019-05-07T22:11:32.155Z,6.10
2019-05-07T22:14:02.087Z,5.27
2019-05-07T22:16:32.220Z,6.30
2019-05-07T22:19:02.630Z,5.80
2019-05-07T22:21:34.169Z,4.70
2019-05-07T22:24:02.848Z,5.50
2019-05-07T22:26:32.177Z,5.10
2019-05-07T22:29:02.904Z,5.20
2019-05-07T22:31:32.071Z,5.13
2019-05-07T22:34:22.225Z,5.60
2019-05-07T22:36:52.487Z,5.00
2019-05-07T22:39:22.088Z,5.10
2019-05-07T22:41:50.124Z,5.50
2019-05-07T22:44:18.307Z,5.80
2019-05-07T22:46:47.436Z,5.23
2019-05-07T22:49:15.613Z,5.70
2019-05-07T22:51:43.821Z,6.10
2019-05-07T22:54:12.034Z,5.23
2019-05-07T22:56:57.194Z,6.07
2019-05-07T22:59:25.385Z,5.40
2019-05-07T23:01:54.922Z,5.67
2019-05-07T23:04:24.454Z,6.07
2019-05-07T23:06:52.944Z,6.13
2019-05-07T23:09:22.387Z,6.30
2019-05-07T23:11:52.662Z,6.23
2019-05-07T23:14:22.681Z,5.67
2019-05-07T23:16:52.640Z,5.77
2019-05-07T23:19:22.053Z,6.30
2019-05-07T23:21:52.161Z,6.23
2019-05-07T23:24:22.622Z,6.30
2019-05-07T23:26:51.179Z,6.57
2019-05-07T23:29:22.227Z,6.13
2019-05-07T23:31:49.877Z,6.27
2019-05-07T23:34:18.085Z,5.67
2019-05-07T23:36:46.302Z,6.43
2019-05-07T23:39:17.102Z,5.70
2019-05-07T23:41:52.700Z,6.10
2019-05-07T23:44:22.849Z,7.20
2019-05-07T23:46:51.996Z,6.63
2019-05-07T23:49:20.310Z,6.77
2019-05-07T23:51:48.529Z,6.97
2019-05-07T23:54:16.750Z,7.13
2019-05-07T23:56:44.961Z,6.53
2019-05-07T23:59:15.030Z,6.80
